Terminal Aerodrome Forecast
Issued by NWS Des Moines, IA

Home | Current Version | Previous Version | Text Only | Print | Product List | Glossary On
Versions: 1 2 3 4 5 6 7 8 9 10 11 12 13 14 15 16
000
FTUS43 KDMX 271949 AAA
TAFALO
TAF AMD
KALO 271949Z 2720/2818 27016KT P6SM OVC025
     FM272200 29013KT P6SM OVC035
     FM280200 VRB04KT P6SM SCT030
     FM281300 04004KT P6SM BKN100
     FM281700 07011KT P6SM VCSH SCT025 OVC070=

USA.gov is the U.S. government's official web portal to all federal, state and local government web resources and services.